Inmocean — ZCXX2 — position and weather

sailwx.info

Track history (hours):
 
Tides and Currents Weather Stations Pressure Air Temp Water Temp Dewpoint Dewpoint Depression Visibility Wind Speed Wind Dir Waves Ship Positions

Inmocean

Last reported at 2015-Aug-02 22:07 UTC. Time now 2015-Aug-03 02:42 UTC.
Position N 43°53' E 008°01'.

Type: Sailing vessel. MMSI: 319120000.

Date/timePositionNaut miles runAvg speedWind from/ knotsBaromVisibWave heightAir tempDewpointWater temp
2015-Aug-02 22:07N 43°53' E 008°01'0 0.0
2015-Aug-02 21:31N 43°53' E 008°01'0 0.0
2015-Aug-02 19:31N 43°53' E 008°01'0 0.0
2015-Aug-02 18:31N 43°53' E 008°01'0 0.0
2015-Aug-02 17:31N 43°53' E 008°01'0 0.0
2015-Aug-02 16:28N 43°53' E 008°01'0 0.0
2015-Aug-02 15:25N 43°53' E 008°01'0 0.0
2015-Aug-02 14:25N 43°53' E 008°01'  
2015-Jul-31 03:22N 43°53' E 008°01'0 0.0
2015-Jul-31 02:19N 43°53' E 008°01'0 0.0
2015-Jul-31 01:28N 43°53' E 008°01'0 0.0
2015-Jul-31 00:28N 43°53' E 008°01'0 0.0
2015-Jul-30 23:31N 43°53' E 008°01'0 0.0
2015-Jul-30 22:31N 43°53' E 008°01'0 0.0
2015-Jul-30 14:04N 43°53' E 008°01'0 0.0
2015-Jul-30 12:19N 43°53' E 008°01'0 0.0
2015-Jul-30 11:31N 43°53' E 008°01'102 2.6
2015-Jul-28 19:33N 42°43' E 006°19'1010.6
2015-Jul-28 18:33N 42°36' E 006°08'1010.1
2015-Jul-28 17:33N 42°30' E 005°57'1010.1
2015-Jul-28 16:33N 42°23' E 005°47'10 9.9
2015-Jul-28 15:33N 42°16' E 005°37'142 8.3
2015-Jul-27 22:32N 40°41' E 003°17'8 8.2
2015-Jul-27 21:32N 40°33' E 003°13'9 8.1
2015-Jul-27 20:29N 40°25' E 003°09'8 8.9
2015-Jul-27 19:31N 40°17' E 003°05'11 9.9
2015-Jul-27 18:23N 40°08' E 002°58'8 9.3
2015-Jul-27 17:33N 40°01' E 002°54'9 9.1
2015-Jul-27 16:31N 39°53' E 002°46'29 7.2
2015-Jul-27 12:29N 39°28' E 002°27'8 8.2
2015-Jul-27 11:32N 39°31' E 002°36'3 1.1
2015-Jul-27 08:26N 39°34' E 002°38'2 0.2
2015-Jul-27 00:19N 39°33' E 002°36'0 0.0
2015-Jul-26 23:25N 39°33' E 002°36'0 0.0
2015-Jul-26 22:25N 39°33' E 002°36'0 0.0
2015-Jul-26 21:28N 39°33' E 002°36'1 0.6
2015-Jul-26 20:33N 39°32' E 002°36'9 9.3
2015-Jul-26 19:33N 39°25' E 002°28'1010.0
2015-Jul-26 18:31N 39°22' E 002°15'53 1.2
2015-Jul-24 21:26N 38°60' E 001°13'4 3.4
2015-Jul-24 20:21N 38°56' E 001°14'5 4.5
2015-Jul-24 19:13N 38°51' E 001°14'8 9.9
2015-Jul-24 18:24N 38°47' E 001°23'0 0.0
2015-Jul-24 12:23N 38°47' E 001°23'  
Track history (hours):
 
Tides and Currents Weather Stations Pressure Air Temp Water Temp Dewpoint Dewpoint Depression Visibility Wind Speed Wind Dir Waves Ship Positions

Inmocean

Last reported at 2015-Aug-02 22:07 UTC. Time now 2015-Aug-03 02:42 UTC.
Position N 43°53' E 008°01'.

Type: Sailing vessel. MMSI: 319120000.

Date/timePositionNaut miles runAvg speedWind from/ knotsBaromVisibWave heightAir tempDewpointWater temp
2015-Aug-02 22:07N 43°53' E 008°01'0 0.0
2015-Aug-02 21:31N 43°53' E 008°01'0 0.0
2015-Aug-02 19:31N 43°53' E 008°01'0 0.0
2015-Aug-02 18:31N 43°53' E 008°01'0 0.0
2015-Aug-02 17:31N 43°53' E 008°01'0 0.0
2015-Aug-02 16:28N 43°53' E 008°01'0 0.0
2015-Aug-02 15:25N 43°53' E 008°01'0 0.0
2015-Aug-02 14:25N 43°53' E 008°01'  
2015-Jul-31 03:22N 43°53' E 008°01'0 0.0
2015-Jul-31 02:19N 43°53' E 008°01'0 0.0
2015-Jul-31 01:28N 43°53' E 008°01'0 0.0
2015-Jul-31 00:28N 43°53' E 008°01'0 0.0
2015-Jul-30 23:31N 43°53' E 008°01'0 0.0
2015-Jul-30 22:31N 43°53' E 008°01'0 0.0
2015-Jul-30 14:04N 43°53' E 008°01'0 0.0
2015-Jul-30 12:19N 43°53' E 008°01'0 0.0
2015-Jul-30 11:31N 43°53' E 008°01'102 2.6
2015-Jul-28 19:33N 42°43' E 006°19'1010.6
2015-Jul-28 18:33N 42°36' E 006°08'1010.1
2015-Jul-28 17:33N 42°30' E 005°57'1010.1
2015-Jul-28 16:33N 42°23' E 005°47'10 9.9
2015-Jul-28 15:33N 42°16' E 005°37'142 8.3
2015-Jul-27 22:32N 40°41' E 003°17'8 8.2
2015-Jul-27 21:32N 40°33' E 003°13'9 8.1
2015-Jul-27 20:29N 40°25' E 003°09'8 8.9
2015-Jul-27 19:31N 40°17' E 003°05'11 9.9
2015-Jul-27 18:23N 40°08' E 002°58'8 9.3
2015-Jul-27 17:33N 40°01' E 002°54'9 9.1
2015-Jul-27 16:31N 39°53' E 002°46'29 7.2
2015-Jul-27 12:29N 39°28' E 002°27'8 8.2
2015-Jul-27 11:32N 39°31' E 002°36'3 1.1
2015-Jul-27 08:26N 39°34' E 002°38'2 0.2
2015-Jul-27 00:19N 39°33' E 002°36'0 0.0
2015-Jul-26 23:25N 39°33' E 002°36'0 0.0
2015-Jul-26 22:25N 39°33' E 002°36'0 0.0
2015-Jul-26 21:28N 39°33' E 002°36'1 0.6
2015-Jul-26 20:33N 39°32' E 002°36'9 9.3
2015-Jul-26 19:33N 39°25' E 002°28'1010.0
2015-Jul-26 18:31N 39°22' E 002°15'53 1.2
2015-Jul-24 21:26N 38°60' E 001°13'4 3.4
2015-Jul-24 20:21N 38°56' E 001°14'5 4.5
2015-Jul-24 19:13N 38°51' E 001°14'8 9.9
2015-Jul-24 18:24N 38°47' E 001°23'0 0.0
2015-Jul-24 12:23N 38°47' E 001°23'  

Dump ship's entire track history